Decoded Metar for KOTG (WORTHINGTON in MN, USA) (IATA:OTG) | Meteo·Mobile Aviation Weather
aviador You're here:

KOTG Decoded Metar

WORTHINGTON in MN, USA
Report Time2019-10-18 13:56:00
UTC Time2019-10-18 14:42:41
Flight Rules vfr VFR
Wind160° at 15 Gusting to 20 kt
W.Decomp.*RWY 18: 13.9 kt HW 5.6 kt LCW
RWY 11: 10.0 kt HW 11.1 kt RCW
Visibility9999 m
Phenomena:N/A
Clouds:N/A
Expected CloudBase > 1,200 ft AGL from Temp-Dew spread
CeilingNone
Temp09°C (ISA -3)
Dew Point06°C (82% RH)
AAT2.7°C
QNH1003 hPa
Density Alt1,706 ft
Elevation1,575 ft
Report Wrong Elevation
Raw Report
KOTG 181356Z AUTO 16015G20KT 10SM CLR 09/06 A2961 RMK AO2 SLP033
T00940056=

Extra information for KOTG:More info

Metar Taf Metar & Taf Last 4 Metars F.Rules Stats Wind Profile Meteogram Temp Stats Airport Information Weather charts Add Link Nearby VenuesMetar ALERT Operation Metar Decoded Social comments

AIRNAV info for KOTG